Anamoose, North Dakota
Current Conditions -  °F | °C
As of 3:35 AM on Tuesday 21 Oct 2014 (Local Time) from K5H4 Reporting Station
Clear Clear  
Wind Chill: 36°   Ceiling: Unl
Heat Index: 41°   Visibility: 10mi
Dew Point: 39°   Wind: 7mph
Humidity: 93%   Direction: 110°ESE
Pressure: 29.92"   Gusts: NA
Location:  47.88°N, 100.24°W
Report Text: K5H4 210835Z AUTO 11006KT 10SM CLR 05/04 A2992 RMK AO2
Loading
Personal Weather Stations






























Interactive Weather Map
Tropical Storm Tracking
New forecast layout! Learn more

10-Day Weather Forecast

Advertisements
Track Severe Weather on mobile